Time;durP1;ratioP1;P1;durP2;ratioP2;P2;SDS_P1;SDS_P2;PMS_P1;PMS_P2;Temp;Humidity;BMP_temperature;BMP_pressure;BME280_temperature;BME280_humidity;BME280_pressure;Samples;Min_cycle;Max_cycle;Signal;HPM_P1;HPM_P2
2021/10/08 00:00:17;;;;;;;2.40;2.20;;;;;;;9.87;86.30;95414.88;5055951;28;20086;-80
2021/10/08 00:02:45;;;;;;;2.10;2.00;;;;;;;9.90;86.12;95419.66;5021643;28;20116;-80
2021/10/08 00:05:11;;;;;;;5.60;2.30;;;;;;;9.84;85.76;95433.50;5056420;28;20029;-80
2021/10/08 00:07:36;;;;;;;1.80;1.70;;;;;;;9.91;84.94;95421.22;5144225;22;20044;-81
2021/10/08 00:10:16;;;;;;;2.17;2.05;;;;;;;9.87;85.86;95412.28;5097014;28;20027;-80
2021/10/08 00:12:42;;;;;;;1.90;1.80;;;;;;;9.83;86.01;95421.50;5086135;28;20043;-80
2021/10/08 00:15:07;;;;;;;5.95;2.40;;;;;;;9.89;85.73;95431.03;5087637;28;20032;-80
2021/10/08 00:17:33;;;;;;;2.20;2.10;;;;;;;9.93;85.55;95419.25;5109067;22;20041;-79
2021/10/08 00:19:58;;;;;;;8.70;2.33;;;;;;;9.90;84.99;95422.25;5076355;28;20043;-79
2021/10/08 00:22:24;;;;;;;2.10;1.90;;;;;;;9.85;85.84;95419.50;5082269;28;20029;-79
2021/10/08 00:24:50;;;;;;;4.50;2.35;;;;;;;9.83;85.35;95429.31;5065824;28;20031;-79
2021/10/08 00:27:15;;;;;;;1.73;1.63;;;;;;;9.88;85.15;95417.25;5064945;28;20033;-79
2021/10/08 00:29:47;;;;;;;1.88;1.77;;;;;;;9.90;84.37;95415.25;5048873;28;20056;-79
2021/10/08 00:32:21;;;;;;;1.70;1.60;;;;;;;9.86;84.63;95413.28;5069759;28;20033;-79
2021/10/08 00:34:52;;;;;;;1.90;1.80;;;;;;;9.95;84.82;95406.84;5067516;28;20028;-79
2021/10/08 00:37:18;;;;;;;2.22;1.77;;;;;;;10.01;84.21;95408.56;5047124;28;20086;-79
2021/10/08 00:39:43;;;;;;;2.67;1.77;;;;;;;10.05;83.80;95409.72;5063187;28;20044;-79
2021/10/08 00:42:09;;;;;;;2.10;2.00;;;;;;;9.98;84.57;95410.81;5065726;28;20040;-78
2021/10/08 00:44:34;;;;;;;1.92;1.83;;;;;;;10.02;84.62;95407.56;5078692;28;20048;-79
2021/10/08 00:47:00;;;;;;;2.10;2.00;;;;;;;9.96;84.42;95403.22;5062030;28;20024;-78
2021/10/08 00:49:25;;;;;;;2.25;2.00;;;;;;;9.94;85.10;95407.84;5070403;28;20041;-79
2021/10/08 00:51:51;;;;;;;2.40;2.20;;;;;;;9.87;85.67;95417.47;5087321;28;20562;-79
2021/10/08 00:54:16;;;;;;;2.40;2.28;;;;;;;9.83;86.59;95400.72;5049457;28;20029;-79
2021/10/08 00:56:47;;;;;;;4.13;1.80;;;;;;;9.78;86.84;95395.38;5080457;28;20054;-79
2021/10/08 00:59:12;;;;;;;2.22;2.00;;;;;;;9.72;87.36;95409.19;5031923;28;20343;-78
2021/10/08 01:01:38;;;;;;;10.30;2.22;;;;;;;9.77;87.45;95399.00;5066446;28;20029;-79
2021/10/08 01:04:04;;;;;;;2.20;2.00;;;;;;;9.68;88.22;95398.44;5064296;28;20044;-80
2021/10/08 01:06:29;;;;;;;2.15;2.05;;;;;;;9.67;88.12;95398.66;5046162;28;20037;-79
2021/10/08 01:08:55;;;;;;;2.05;1.88;;;;;;;9.58;89.14;95401.50;5062484;28;20041;-79
2021/10/08 01:11:20;;;;;;;2.08;1.98;;;;;;;9.58;89.20;95400.72;5112886;23;20044;-79
2021/10/08 01:13:46;;;;;;;5.13;2.30;;;;;;;9.53;88.81;95392.75;5075767;28;20103;-79
2021/10/08 01:16:12;;;;;;;2.20;2.10;;;;;;;9.51;89.77;95380.00;5073182;28;20044;-78
2021/10/08 01:18:37;;;;;;;2.20;2.10;;;;;;;9.55;90.01;95380.38;5048207;28;20029;-79
2021/10/08 01:21:03;;;;;;;2.20;2.10;;;;;;;9.57;89.44;95386.94;5067126;28;20036;-78
2021/10/08 01:23:28;;;;;;;3.00;2.30;;;;;;;9.63;89.44;95404.28;5062044;28;20035;-78
2021/10/08 01:25:54;;;;;;;2.45;2.25;;;;;;;9.62;89.03;95400.09;5064085;28;20488;-80
2021/10/08 01:28:25;;;;;;;2.47;2.38;;;;;;;9.58;89.54;95411.88;5063225;28;20082;-80
2021/10/08 01:30:51;;;;;;;2.72;2.53;;;;;;;9.58;89.02;95401.50;5063846;28;20036;-80
2021/10/08 01:33:16;;;;;;;2.80;2.60;;;;;;;9.63;89.72;95399.09;5063821;28;20040;-80
2021/10/08 01:35:42;;;;;;;4.03;2.53;;;;;;;9.72;89.12;95410.00;5061745;28;20115;-79
2021/10/08 01:38:07;;;;;;;5.85;2.13;;;;;;;9.74;88.90;95394.19;5063685;28;20036;-80
2021/10/08 01:40:33;;;;;;;7.90;2.72;;;;;;;9.65;89.32;95390.28;5063654;28;20062;-80
2021/10/08 01:42:58;;;;;;;3.80;2.90;;;;;;;9.59;89.18;95390.09;5062364;28;20045;-80
2021/10/08 01:45:24;;;;;;;3.53;3.22;;;;;;;9.60;89.56;95378.75;5048434;28;20086;-80
2021/10/08 01:47:49;;;;;;;4.75;3.33;;;;;;;9.61;89.45;95384.72;5062873;28;20028;-79
2021/10/08 01:50:14;;;;;;;3.63;3.33;;;;;;;9.59;89.09;95377.13;5081751;28;20044;-79
2021/10/08 01:52:40;;;;;;;3.70;3.33;;;;;;;9.68;89.34;95387.25;5064070;28;20039;-80
2021/10/08 01:55:06;;;;;;;6.97;3.72;;;;;;;9.62;89.17;95387.13;5064511;28;20040;-80
2021/10/08 01:57:41;;;;;;;3.45;3.25;;;;;;;9.60;89.19;95383.94;5076739;28;20060;-79
2021/10/08 02:00:06;;;;;;;5.75;3.33;;;;;;;9.62;89.87;95381.91;5069905;28;20046;-80
2021/10/08 02:02:32;;;;;;;3.78;3.45;;;;;;;9.66;89.22;95382.28;5067957;28;20032;-80
2021/10/08 02:04:57;;;;;;;5.18;3.92;;;;;;;9.81;89.45;95384.56;5066732;28;20115;-81
2021/10/08 02:07:23;;;;;;;5.45;3.92;;;;;;;9.82;88.07;95392.16;5066120;28;20039;-81
2021/10/08 02:09:48;;;;;;;4.25;3.95;;;;;;;9.79;88.01;95392.56;5064500;28;20040;-81
2021/10/08 02:12:13;;;;;;;6.28;3.88;;;;;;;9.87;87.96;95389.69;5063797;28;20033;-81
2021/10/08 02:14:39;;;;;;;7.43;4.13;;;;;;;9.85;88.03;95393.53;5061832;28;20037;-81
2021/10/08 02:17:04;;;;;;;4.85;4.40;;;;;;;9.85;88.11;95390.91;5200145;23;20039;-79
2021/10/08 02:19:30;;;;;;;4.50;4.20;;;;;;;9.84;87.75;95392.72;5113145;28;20028;-80
2021/10/08 02:21:55;;;;;;;6.95;4.05;;;;;;;9.81;88.54;95390.56;5125662;28;20035;-79
2021/10/08 02:24:21;;;;;;;5.03;4.63;;;;;;;9.89;88.41;95376.50;5096695;28;20035;-79
2021/10/08 02:26:46;;;;;;;6.13;4.72;;;;;;;9.88;87.58;95374.91;5096587;28;20027;-80
2021/10/08 02:29:32;;;;;;;4.65;4.25;;;;;;;9.95;87.37;95380.84;5114524;28;20077;-79
2021/10/08 02:31:57;;;;;;;5.25;4.75;;;;;;;9.93;87.03;95380.28;5103727;28;20494;-80
2021/10/08 02:34:23;;;;;;;8.05;4.97;;;;;;;9.84;88.03;95378.94;5096278;28;20031;-80
2021/10/08 02:36:48;;;;;;;5.20;4.75;;;;;;;9.88;87.21;95373.09;5114550;28;20063;-80
2021/10/08 02:39:14;;;;;;;8.15;5.85;;;;;;;9.91;87.23;95379.66;5096781;28;20038;-80
2021/10/08 02:41:53;;;;;;;7.78;5.90;;;;;;;9.90;86.82;95378.09;5095940;28;20482;-79
2021/10/08 02:44:18;;;;;;;9.02;5.05;;;;;;;10.06;86.83;95376.75;5096156;28;20035;-80
2021/10/08 02:46:44;;;;;;;5.72;5.22;;;;;;;10.11;85.38;95375.09;5114594;28;20054;-79
2021/10/08 02:49:12;;;;;;;9.38;5.50;;;;;;;10.05;84.62;95378.53;5114444;28;20032;-79
2021/10/08 02:51:40;;;;;;;6.10;5.50;;;;;;;9.97;85.02;95384.03;5113751;28;20100;-79
2021/10/08 02:54:15;;;;;;;8.70;6.00;;;;;;;9.91;85.40;95375.28;5112293;28;20501;-79
2021/10/08 02:56:41;;;;;;;9.57;5.38;;;;;;;10.01;85.25;95380.00;5111614;28;20429;-78
2021/10/08 02:59:06;;;;;;;5.80;5.22;;;;;;;9.82;84.90;95373.97;5113490;28;20026;-78
2021/10/08 03:01:32;;;;;;;10.27;5.28;;;;;;;9.80;86.16;95367.41;5113121;28;20040;-80
2021/10/08 03:04:18;;;;;;;7.30;5.38;;;;;;;9.89;85.51;95371.28;5121478;28;20027;-80
2021/10/08 03:06:43;;;;;;;8.75;5.53;;;;;;;9.85;85.16;95375.34;5112722;28;20506;-80
2021/10/08 03:09:08;;;;;;;6.75;5.72;;;;;;;9.89;85.15;95376.50;5114197;28;20027;-80
2021/10/08 03:11:36;;;;;;;5.78;4.95;;;;;;;9.99;84.94;95387.22;5112769;28;20035;-81
2021/10/08 03:14:01;;;;;;;5.55;5.05;;;;;;;9.94;85.32;95379.25;5113027;28;20096;-80
2021/10/08 03:16:27;;;;;;;5.80;4.97;;;;;;;9.94;84.80;95374.06;5114312;28;20027;-79
2021/10/08 03:18:52;;;;;;;5.25;4.85;;;;;;;9.86;85.04;95382.13;5113211;28;20592;-79
2021/10/08 03:21:18;;;;;;;5.45;4.55;;;;;;;9.87;85.32;95378.50;5174511;22;20037;-78
2021/10/08 03:23:43;;;;;;;5.70;4.85;;;;;;;10.07;84.92;95373.13;5070027;28;20048;-78
2021/10/08 03:26:08;;;;;;;6.60;4.10;;;;;;;10.15;84.25;95384.06;5068531;28;20022;-79
2021/10/08 03:28:35;;;;;;;4.47;4.18;;;;;;;10.13;84.77;95373.09;5041820;28;20485;-79
2021/10/08 03:31:00;;;;;;;5.22;3.70;;;;;;;10.10;84.27;95381.31;5052673;28;20163;-79
2021/10/08 03:33:26;;;;;;;6.75;3.63;;;;;;;10.16;84.35;95380.44;5034301;28;20021;-81
2021/10/08 03:35:51;;;;;;;7.22;3.63;;;;;;;10.10;84.85;95385.72;5008645;28;20176;-80
2021/10/08 03:38:19;;;;;;;3.53;2.95;;;;;;;9.96;85.82;95374.66;5028551;28;20033;-78
2021/10/08 03:41:09;;;;;;;3.75;3.25;;;;;;;9.96;86.47;95385.03;5053196;28;20040;-78
2021/10/08 03:43:31;;;;;;;4.28;3.58;;;;;;;9.87;87.28;95378.50;5051138;28;20099;-78
2021/10/08 03:46:00;;;;;;;6.22;2.78;;;;;;;9.89;87.03;95368.69;5024683;28;20074;-79
2021/10/08 03:50:58;;;;;;;3.75;2.85;;;;;;;9.82;88.37;95396.53;5062731;28;20033;-79
2021/10/08 03:53:23;;;;;;;4.20;3.40;;;;;;;9.84;87.96;95384.13;5059361;28;20033;-79
2021/10/08 03:55:49;;;;;;;3.83;3.53;;;;;;;9.77;88.76;95378.22;5059816;28;20036;-79
2021/10/08 03:58:14;;;;;;;4.03;3.10;;;;;;;9.77;88.09;95375.63;5056384;28;20047;-79
2021/10/08 04:00:39;;;;;;;2.85;2.65;;;;;;;9.61;88.74;95380.34;5039677;28;20033;-78
2021/10/08 04:03:05;;;;;;;3.55;3.17;;;;;;;9.56;89.14;95382.75;5060993;28;20025;-79
2021/10/08 04:05:30;;;;;;;3.35;3.03;;;;;;;9.59;89.69;95377.13;5042302;28;20033;-77
2021/10/08 04:07:56;;;;;;;6.75;3.08;;;;;;;9.69;89.68;95396.66;5022086;28;20058;-79
2021/10/08 04:10:22;;;;;;;3.97;2.78;;;;;;;9.74;89.21;95384.59;5032495;28;20040;-79
2021/10/08 04:12:47;;;;;;;4.13;2.72;;;;;;;9.72;88.98;95385.81;5043348;28;20036;-79
2021/10/08 04:15:13;;;;;;;2.95;2.58;;;;;;;9.74;88.97;95395.00;5041205;28;20024;-79
2021/10/08 04:17:41;;;;;;;2.85;2.63;;;;;;;9.73;89.21;95413.38;5032757;28;20299;-78
2021/10/08 04:20:07;;;;;;;2.80;2.70;;;;;;;9.58;89.88;95408.50;5057066;28;20063;-78
2021/10/08 04:22:33;;;;;;;3.10;2.90;;;;;;;9.48;89.78;95396.00;5047233;28;20115;-79
2021/10/08 04:24:58;;;;;;;4.95;2.97;;;;;;;9.42;90.68;95409.81;5026181;28;20045;-78
2021/10/08 04:27:23;;;;;;;6.85;2.47;;;;;;;9.36;90.53;95415.03;5059314;28;20039;-79
2021/10/08 04:29:49;;;;;;;8.48;2.70;;;;;;;9.41;90.12;95384.84;5054468;28;20033;-79
2021/10/08 04:32:14;;;;;;;4.22;2.47;;;;;;;9.53;89.51;95395.38;5056933;28;20523;-79
2021/10/08 04:34:40;;;;;;;2.95;2.50;;;;;;;9.56;89.75;95393.13;5044859;28;20087;-78
2021/10/08 04:37:06;;;;;;;5.70;2.97;;;;;;;9.49;89.68;95412.38;5051040;28;20191;-78
2021/10/08 04:39:31;;;;;;;4.40;2.85;;;;;;;9.56;89.63;95407.91;5010796;28;20065;-79
2021/10/08 04:41:56;;;;;;;4.13;2.55;;;;;;;9.64;89.14;95405.06;5031912;28;20403;-78
2021/10/08 04:44:22;;;;;;;3.13;2.60;;;;;;;9.62;88.03;95407.88;5045823;28;20447;-78
2021/10/08 04:47:07;;;;;;;5.07;2.67;;;;;;;9.58;87.91;95416.28;5046462;28;20542;-78
2021/10/08 04:49:33;;;;;;;9.88;2.85;;;;;;;9.62;88.15;95401.91;5013852;28;20090;-79
2021/10/08 04:51:58;;;;;;;8.98;2.47;;;;;;;9.63;88.08;95414.66;5031938;28;20040;-78
2021/10/08 04:54:24;;;;;;;5.28;2.35;;;;;;;9.69;87.66;95409.63;5054432;28;20040;-79
2021/10/08 04:56:49;;;;;;;4.07;2.70;;;;;;;9.73;86.88;95408.19;5045411;28;20029;-79
2021/10/08 04:59:15;;;;;;;3.17;2.58;;;;;;;9.74;87.07;95394.19;5057860;28;20037;-79
2021/10/08 05:01:40;;;;;;;3.75;2.80;;;;;;;9.68;87.19;95406.25;5048197;28;20115;-79
2021/10/08 05:04:06;;;;;;;4.55;2.25;;;;;;;9.79;86.81;95400.38;5050310;28;20051;-79
2021/10/08 05:06:31;;;;;;;3.72;3.40;;;;;;;9.68;86.39;95384.66;5029654;28;20021;-78
2021/10/08 05:08:59;;;;;;;8.10;3.50;;;;;;;9.73;86.90;95390.81;5052303;28;20040;-78
2021/10/08 05:11:25;;;;;;;3.90;3.53;;;;;;;9.73;87.08;95371.84;5062834;28;20021;-78
2021/10/08 05:13:50;;;;;;;7.38;3.35;;;;;;;9.74;87.29;95378.63;5056747;28;20055;-78
2021/10/08 05:16:18;;;;;;;7.68;3.58;;;;;;;9.77;86.60;95384.22;5059404;28;20048;-78
2021/10/08 05:18:46;;;;;;;14.90;3.20;;;;;;;9.74;86.79;95394.19;5061798;28;20026;-78
2021/10/08 05:21:11;;;;;;;5.25;4.05;;;;;;;9.68;86.64;95384.66;5046488;28;20123;-78
2021/10/08 05:23:40;;;;;;;6.05;3.25;;;;;;;9.72;86.79;95393.63;5043429;28;20038;-78
2021/10/08 05:26:06;;;;;;;3.47;3.13;;;;;;;9.75;86.26;95393.97;5054223;28;20036;-79
2021/10/08 05:28:31;;;;;;;3.92;2.50;;;;;;;9.70;87.20;95391.25;5031149;28;20043;-79
2021/10/08 05:30:56;;;;;;;8.05;2.90;;;;;;;9.65;87.08;95390.28;5050152;28;20458;-79
2021/10/08 05:33:22;;;;;;;10.63;2.95;;;;;;;9.72;87.61;95396.22;5051639;28;20028;-78
2021/10/08 05:35:47;;;;;;;3.33;2.72;;;;;;;9.71;87.16;95405.00;5048793;28;20710;-79
2021/10/08 05:38:13;;;;;;;5.25;3.30;;;;;;;9.71;87.56;95399.81;5029950;28;20036;-79
2021/10/08 05:40:38;;;;;;;4.15;3.22;;;;;;;9.80;87.19;95401.97;5047354;28;20120;-80
2021/10/08 05:43:04;;;;;;;10.43;3.78;;;;;;;9.77;86.92;95399.78;5028045;28;20084;-80
2021/10/08 05:45:29;;;;;;;4.03;3.58;;;;;;;9.78;87.83;95426.56;5054671;28;20416;-79
2021/10/08 05:47:55;;;;;;;4.22;3.42;;;;;;;9.76;87.65;95402.56;5043339;28;20044;-79
2021/10/08 05:50:20;;;;;;;5.97;2.95;;;;;;;9.84;87.70;95402.31;5029076;28;20036;-78
2021/10/08 05:52:46;;;;;;;5.82;3.40;;;;;;;9.87;86.57;95399.28;5046371;28;20504;-79
2021/10/08 05:55:11;;;;;;;7.72;3.70;;;;;;;9.81;87.13;95400.16;5053956;28;20056;-79
2021/10/08 05:57:37;;;;;;;6.45;4.30;;;;;;;9.74;88.36;95399.41;5031943;28;20041;-79
2021/10/08 06:00:04;;;;;;;5.40;3.75;;;;;;;9.68;88.51;95395.06;5052963;28;20512;-78
2021/10/08 06:02:30;;;;;;;3.40;3.10;;;;;;;9.63;88.31;95388.69;5034729;28;20075;-78
2021/10/08 06:04:58;;;;;;;3.95;3.10;;;;;;;9.57;89.43;95376.53;5058968;28;20048;-80
2021/10/08 06:07:24;;;;;;;3.90;3.60;;;;;;;9.60;89.12;95383.16;5050788;28;20037;-79
2021/10/08 06:09:49;;;;;;;11.45;3.45;;;;;;;9.56;88.68;95393.13;5057681;28;20039;-79
2021/10/08 06:12:15;;;;;;;5.30;3.53;;;;;;;9.67;88.99;95383.88;5045004;28;20032;-80
2021/10/08 06:15:00;;;;;;;3.10;2.90;;;;;;;9.66;89.59;95389.28;5030940;28;20040;-78
2021/10/08 06:17:25;;;;;;;6.88;3.17;;;;;;;9.59;89.63;95387.50;5042638;28;20052;-80
2021/10/08 06:19:50;;;;;;;2.83;2.63;;;;;;;9.62;89.28;95387.13;5054365;28;21002;-79
2021/10/08 06:22:22;;;;;;;3.55;2.80;;;;;;;9.63;88.97;95404.28;5055859;28;20462;-82
2021/10/08 06:24:48;;;;;;;3.40;3.15;;;;;;;9.46;89.57;95408.41;5037970;28;20052;-85
2021/10/08 06:27:13;;;;;;;14.18;4.18;;;;;;;9.42;90.92;95412.41;5043412;28;20126;-80
2021/10/08 06:29:38;;;;;;;4.13;2.90;;;;;;;9.42;91.46;95396.03;5054773;28;20025;-80
2021/10/08 06:32:06;;;;;;;10.63;3.58;;;;;;;9.38;91.40;95400.84;5061930;28;20032;-81
2021/10/08 06:34:33;;;;;;;4.38;2.67;;;;;;;9.30;91.94;95393.31;5055786;28;20020;-81
2021/10/08 06:36:58;;;;;;;4.90;2.88;;;;;;;9.46;92.36;95397.22;5058282;28;20033;-80
2021/10/08 06:39:24;;;;;;;3.10;2.85;;;;;;;9.39;91.58;95402.44;5032746;28;20043;-81
2021/10/08 06:44:17;;;;;;;4.63;3.42;;;;;;;9.46;90.92;95400.59;5052257;28;20052;-80
2021/10/08 06:46:43;;;;;;;7.78;2.88;;;;;;;9.45;90.94;95411.22;5061507;28;20098;-80
2021/10/08 06:49:10;;;;;;;3.40;2.58;;;;;;;9.45;90.58;95406.81;5071716;28;20040;-80
2021/10/08 06:51:35;;;;;;;3.70;3.03;;;;;;;9.52;91.08;95415.34;5073431;28;20039;-80
2021/10/08 06:54:01;;;;;;;3.67;2.45;;;;;;;9.45;90.34;95417.19;5038952;28;20033;-81
2021/10/08 06:56:29;;;;;;;8.45;3.58;;;;;;;9.44;91.40;95413.00;5055341;28;20035;-81
2021/10/08 06:58:55;;;;;;;4.75;2.92;;;;;;;9.41;90.76;95407.41;5070567;28;20033;-81
2021/10/08 07:01:20;;;;;;;6.22;2.80;;;;;;;9.38;91.39;95432.00;5055386;28;20067;-81
2021/10/08 07:03:46;;;;;;;8.10;3.75;;;;;;;9.32;91.80;95415.47;5073331;28;20064;-81
2021/10/08 07:06:11;;;;;;;8.07;3.88;;;;;;;9.33;92.51;95416.25;5071479;28;20492;-81
2021/10/08 07:08:37;;;;;;;7.68;3.97;;;;;;;9.32;92.27;95423.25;5054617;28;20024;-80
2021/10/08 07:11:02;;;;;;;4.90;3.63;;;;;;;9.35;92.54;95445.38;5038126;28;20124;-81
2021/10/08 07:13:28;;;;;;;8.98;3.60;;;;;;;9.38;91.88;95442.38;5071440;28;20028;-81
2021/10/08 07:15:53;;;;;;;7.57;3.28;;;;;;;9.32;91.71;95438.81;5054278;28;20036;-81
2021/10/08 07:18:24;;;;;;;3.83;3.42;;;;;;;9.40;92.06;95434.38;5038267;28;20025;-79
2021/10/08 07:20:49;;;;;;;5.53;3.30;;;;;;;9.39;92.00;95438.78;5071494;28;20067;-80
2021/10/08 07:23:15;;;;;;;5.65;3.70;;;;;;;9.44;91.82;95444.16;5061876;28;20492;-81
2021/10/08 07:25:40;;;;;;;5.57;3.58;;;;;;;9.42;91.71;95443.53;5071148;28;20503;-81
2021/10/08 07:28:06;;;;;;;5.63;3.30;;;;;;;9.40;91.88;95450.75;5072680;28;20427;-80
2021/10/08 07:30:31;;;;;;;4.18;3.15;;;;;;;9.48;91.47;95457.50;5070398;28;20108;-80
2021/10/08 07:32:57;;;;;;;5.22;3.40;;;;;;;9.60;90.77;95461.03;5069778;28;20040;-81
2021/10/08 07:35:22;;;;;;;3.05;2.60;;;;;;;9.62;90.36;95465.00;5070121;28;20416;-80
2021/10/08 07:41:07;;;;;;;6.68;3.08;;;;;;;9.60;90.05;95467.03;5067979;28;20032;-80
2021/10/08 07:43:33;;;;;;;5.20;3.20;;;;;;;9.52;89.75;95469.84;5054507;28;20044;-80
2021/10/08 07:45:59;;;;;;;3.47;3.15;;;;;;;9.55;89.71;95472.03;5053928;28;20043;-79
2021/10/08 07:48:24;;;;;;;3.90;3.50;;;;;;;9.52;89.55;95477.66;5054464;28;20028;-80
2021/10/08 07:50:50;;;;;;;4.07;3.33;;;;;;;9.62;89.53;95490.97;5071305;28;20035;-80
2021/10/08 07:53:15;;;;;;;3.72;3.40;;;;;;;9.72;89.68;95503.50;5053984;28;20040;-79
2021/10/08 07:55:41;;;;;;;5.07;3.58;;;;;;;9.72;88.59;95494.91;5070249;28;20025;-80
2021/10/08 07:58:06;;;;;;;7.55;4.10;;;;;;;9.84;88.51;95506.22;5070038;28;20548;-81
2021/10/08 08:00:32;;;;;;;5.53;3.45;;;;;;;9.82;88.24;95510.84;5072643;28;20155;-82
2021/10/08 08:02:57;;;;;;;7.68;3.60;;;;;;;9.85;88.32;95528.59;5056752;28;20035;-81
2021/10/08 08:05:23;;;;;;;3.85;3.38;;;;;;;9.90;87.68;95523.56;5075499;28;20056;-81
2021/10/08 08:07:50;;;;;;;6.28;3.70;;;;;;;9.85;87.41;95526.00;5057658;28;20476;-80
2021/10/08 08:10:15;;;;;;;3.78;3.47;;;;;;;9.77;88.04;95523.66;5074974;28;20029;-81
2021/10/08 08:12:41;;;;;;;6.40;3.47;;;;;;;9.86;87.63;95533.56;5078413;28;20059;-80
2021/10/08 08:15:19;;;;;;;4.40;3.50;;;;;;;9.81;87.34;95527.44;5078325;28;20032;-81
2021/10/08 08:17:44;;;;;;;5.95;3.45;;;;;;;9.89;87.93;95530.56;5059802;28;20037;-81
2021/10/08 08:20:11;;;;;;;5.20;3.70;;;;;;;9.95;87.63;95523.75;5060488;28;20043;-81
2021/10/08 08:22:36;;;;;;;5.45;3.38;;;;;;;9.98;87.56;95522.53;5061931;28;20035;-81
2021/10/08 08:25:03;;;;;;;4.25;3.85;;;;;;;10.05;87.46;95518.84;5078757;28;20036;-81
2021/10/08 08:27:28;;;;;;;4.03;3.63;;;;;;;10.05;87.01;95521.47;5064964;28;20032;-81
2021/10/08 08:29:56;;;;;;;4.13;3.50;;;;;;;9.98;86.55;95520.72;5075027;28;20029;-82
2021/10/08 08:32:21;;;;;;;3.92;3.60;;;;;;;10.12;86.59;95527.41;5057658;28;20039;-81
2021/10/08 08:34:47;;;;;;;6.80;4.40;;;;;;;10.00;86.71;95533.50;5057557;28;20024;-81
2021/10/08 08:37:12;;;;;;;4.57;3.63;;;;;;;10.05;86.68;95537.03;5056511;28;20097;-81
2021/10/08 08:39:40;;;;;;;4.85;4.20;;;;;;;10.04;87.08;95535.47;5072210;28;20025;-80
2021/10/08 08:42:05;;;;;;;5.63;4.20;;;;;;;10.16;87.16;95554.56;5057898;28;20032;-81
2021/10/08 08:44:31;;;;;;;5.72;4.07;;;;;;;10.26;85.49;95545.56;5072904;28;20031;-81
2021/10/08 08:47:00;;;;;;;7.18;4.28;;;;;;;10.24;85.32;95558.72;5071761;28;20029;-80
2021/10/08 08:49:25;;;;;;;7.88;4.43;;;;;;;10.33;86.49;95561.88;5075652;28;20028;-81
2021/10/08 08:51:51;;;;;;;4.63;4.22;;;;;;;10.38;85.18;95562.03;5125975;22;20044;-81
2021/10/08 08:54:16;;;;;;;9.95;4.45;;;;;;;10.37;85.64;95560.44;5081301;28;20407;-82
2021/10/08 08:56:42;;;;;;;6.43;4.70;;;;;;;10.48;85.10;95557.97;5068653;28;20063;-82
2021/10/08 08:59:25;;;;;;;7.22;4.38;;;;;;;10.56;84.59;95554.28;5054155;28;20032;-81
2021/10/08 09:02:01;;;;;;;8.15;3.75;;;;;;;10.62;83.98;95550.84;5057040;28;20033;-81
2021/10/08 09:04:28;;;;;;;6.43;4.30;;;;;;;10.62;83.18;95553.44;5050893;28;20789;-82
2021/10/08 09:06:54;;;;;;;3.97;3.63;;;;;;;10.52;83.30;95532.31;5036070;28;20056;-81
2021/10/08 09:09:20;;;;;;;8.50;5.15;;;;;;;10.41;83.84;95530.41;5036320;28;20032;-81
2021/10/08 09:11:46;;;;;;;6.25;3.90;;;;;;;10.34;84.44;95519.28;5042606;28;20034;-81
2021/10/08 09:14:18;;;;;;;6.32;4.32;;;;;;;10.33;84.92;95517.69;5031171;28;20028;-81
2021/10/08 09:17:14;;;;;;;7.07;4.10;;;;;;;10.36;83.78;95512.06;5059421;28;20637;-81
2021/10/08 09:20:00;;;;;;;5.80;4.22;;;;;;;10.17;85.11;95516.38;5054124;28;20106;-81
2021/10/08 09:22:49;;;;;;;5.80;4.53;;;;;;;10.15;84.52;95521.00;5037251;28;20336;-81
2021/10/08 09:25:20;;;;;;;6.38;5.03;;;;;;;10.22;85.18;95506.16;5027197;28;20039;-81
2021/10/08 09:27:58;;;;;;;4.55;4.15;;;;;;;10.21;84.90;95520.19;5052513;28;20319;-81
2021/10/08 09:30:44;;;;;;;16.17;4.93;;;;;;;10.40;84.77;95508.03;5046179;28;20037;-81
2021/10/08 09:33:12;;;;;;;6.10;4.30;;;;;;;10.32;84.04;95516.91;5042063;28;20111;-81
2021/10/08 09:35:37;;;;;;;5.88;3.95;;;;;;;10.33;84.41;95517.69;5044916;28;20028;-81
2021/10/08 09:38:10;;;;;;;9.43;4.32;;;;;;;10.45;84.61;95526.41;5055263;28;20040;-81
2021/10/08 09:40:41;;;;;;;8.23;3.95;;;;;;;10.30;84.05;95533.72;5051317;28;20033;-81
2021/10/08 09:43:09;;;;;;;9.73;4.00;;;;;;;10.23;84.43;95534.53;5043615;28;20407;-81
2021/10/08 09:45:34;;;;;;;3.45;3.08;;;;;;;10.07;84.75;95539.44;5069932;28;20045;-82
2021/10/08 09:48:00;;;;;;;6.35;3.85;;;;;;;10.09;84.31;95537.44;5039360;28;20536;-82
2021/10/08 09:50:25;;;;;;;4.63;3.33;;;;;;;10.04;84.89;95532.84;5046421;28;20029;-83
2021/10/08 09:52:52;;;;;;;4.28;3.72;;;;;;;10.07;86.48;95524.63;5063124;28;20033;-85
2021/10/08 09:55:18;;;;;;;6.07;3.65;;;;;;;10.21;85.48;95525.38;5060613;28;20179;-84
2021/10/08 09:57:49;;;;;;;10.02;3.45;;;;;;;10.34;84.87;95534.88;5031888;28;20532;-83
2021/10/08 10:00:36;;;;;;;7.18;3.80;;;;;;;10.41;84.28;95530.41;5056794;28;20119;-83
2021/10/08 10:03:03;;;;;;;7.93;4.07;;;;;;;10.37;85.13;95534.44;5070257;28;20051;-83
2021/10/08 10:05:29;;;;;;;7.72;3.60;;;;;;;10.48;84.27;95537.16;5061037;28;20035;-83
2021/10/08 10:07:57;;;;;;;6.18;3.80;;;;;;;10.47;83.71;95525.16;5052600;28;20033;-83
2021/10/08 10:10:23;;;;;;;5.88;4.25;;;;;;;10.49;84.07;95535.34;5033677;28;20032;-83
2021/10/08 10:12:49;;;;;;;5.40;3.55;;;;;;;10.50;83.86;95519.53;5049136;28;20040;-83
2021/10/08 10:15:25;;;;;;;5.05;3.58;;;;;;;10.40;82.75;95523.63;5031431;28;20043;-84
2021/10/08 10:17:51;;;;;;;5.97;3.13;;;;;;;10.41;82.95;95510.44;5393638;23;20468;-82
2021/10/08 10:20:16;;;;;;;5.90;4.03;;;;;;;10.38;83.81;95504.84;5098368;28;20039;-82
2021/10/08 10:22:42;;;;;;;6.05;3.67;;;;;;;10.21;84.25;95496.78;5064510;28;20036;-84
2021/10/08 10:25:14;;;;;;;5.55;3.75;;;;;;;10.08;84.60;95489.84;5082578;28;20024;-81
2021/10/08 10:27:40;;;;;;;11.30;4.78;;;;;;;10.18;84.82;95492.78;5082960;28;20035;-82
2021/10/08 10:30:06;;;;;;;3.90;3.50;;;;;;;10.16;84.67;95489.59;5100792;28;20032;-82
2021/10/08 10:32:33;;;;;;;11.65;5.60;;;;;;;10.40;84.65;95497.63;5082579;28;20089;-81
2021/10/08 10:34:58;;;;;;;5.90;4.68;;;;;;;10.39;83.49;95481.22;5100048;28;20051;-82
2021/10/08 10:37:41;;;;;;;6.78;4.90;;;;;;;10.44;83.71;95465.00;5107442;28;20032;-82
2021/10/08 10:40:33;;;;;;;;;;;;;;;10.37;83.67;95459.84;5082042;28;20036;-82
2021/10/08 10:43:14;;;;;;;9.93;7.18;;;;;;;10.32;84.40;95453.72;5101557;28;19916;-83
2021/10/08 10:46:18;;;;;;;16.95;7.50;;;;;;;10.14;84.05;95447.44;5098006;28;20040;-83
2021/10/08 10:48:46;;;;;;;19.70;6.78;;;;;;;10.01;84.73;95449.34;5097865;28;20075;-83
2021/10/08 10:51:15;;;;;;;9.80;5.75;;;;;;;10.04;84.67;95467.91;5071695;28;20422;-84
2021/10/08 10:54:10;;;;;;;6.95;5.90;;;;;;;10.06;84.74;95455.50;5097505;28;20067;-84
2021/10/08 10:56:40;;;;;;;10.18;7.25;;;;;;;10.23;84.28;95464.38;5124817;22;20547;-83
2021/10/08 10:59:23;;;;;;;9.77;6.53;;;;;;;10.33;83.85;95465.69;5081059;28;20029;-83
2021/10/08 11:02:03;;;;;;;7.30;5.40;;;;;;;10.34;83.35;95475.88;5070753;28;20025;-83
2021/10/08 11:04:29;;;;;;;11.38;5.90;;;;;;;10.19;83.86;95477.97;5078503;28;20029;-83
2021/10/08 11:07:17;;;;;;;6.93;5.20;;;;;;;10.11;83.73;95468.66;5159852;22;20073;-82
2021/10/08 11:09:43;;;;;;;8.60;5.32;;;;;;;10.25;84.94;95463.34;5103871;28;20503;-83
2021/10/08 11:12:32;;;;;;;12.15;4.22;;;;;;;10.17;83.13;95473.00;5098895;28;20063;-82
2021/10/08 11:15:20;;;;;;;6.80;4.85;;;;;;;10.37;83.70;95472.06;5098883;28;20044;-83
2021/10/08 11:17:58;;;;;;;5.88;4.25;;;;;;;10.25;83.38;95473.75;5099543;28;20028;-83
2021/10/08 11:20:33;;;;;;;6.97;4.32;;;;;;;10.16;82.87;95486.22;5095461;28;20116;-83
2021/10/08 11:23:03;;;;;;;7.00;3.92;;;;;;;10.05;84.14;95479.09;5098440;28;20038;-83
2021/10/08 11:25:29;;;;;;;5.10;3.58;;;;;;;9.96;84.24;95480.38;5097050;28;20104;-82
2021/10/08 11:27:54;;;;;;;4.15;3.70;;;;;;;10.19;83.31;95473.56;5078909;28;20040;-81
2021/10/08 11:30:23;;;;;;;5.20;3.92;;;;;;;10.38;83.34;95478.84;5095348;28;20086;-83
2021/10/08 11:36:21;;;;;;;5.10;4.03;;;;;;;10.42;82.19;95474.84;5665853;22;20052;-82
2021/10/08 11:38:47;;;;;;;5.88;3.50;;;;;;;10.75;81.11;95485.72;5063607;28;20047;-81
2021/10/08 11:41:20;;;;;;;4.25;3.85;;;;;;;10.72;80.84;95487.91;5064062;28;20084;-81
2021/10/08 11:43:48;;;;;;;5.00;4.20;;;;;;;10.71;81.26;95494.13;5072183;28;20039;-82
2021/10/08 11:46:35;;;;;;;4.53;3.85;;;;;;;10.80;81.12;95469.44;5065184;28;20041;-82
2021/10/08 11:52:10;;;;;;;8.65;4.35;;;;;;;10.98;80.95;95484.25;5045788;28;20519;-80
2021/10/08 11:54:36;;;;;;;6.07;4.55;;;;;;;10.97;79.87;95477.47;5021567;28;20055;-81
2021/10/08 11:57:09;;;;;;;4.38;3.97;;;;;;;10.91;80.19;95478.34;5018513;28;20116;-81